CheckWX is a tool to help pilots better visualize weather data.  It is not intended as a substitute for an official pre-flight weather briefing.

02:54:00 UTC

KFIG METAR
Clearfield-Lawrence Airport
Clearfield, Pennsylvania, USA
Current

60 mins ago

KFIG 240154Z AUTO 26005KT 10SM CLR 02/M12 A3022 RMK AO2 SLP249 T00221117
Observed
Mar-24 @ 01:54 UTC
Wind
  • 260° at 5 KTS
Visibility
10 SM
Flight Rules
VFR
Cloud Levels
  • Clear skies
Temperature
C / 36°F
Dewpoint
-12°C / 10°F
Humidity
35%
Altimeter
30.22" Hg
Pressure
1024.9 hPa
Previous

2 hours ago

KFIG 240054Z AUTO 28006KT 10SM CLR 03/M11 A3021 RMK AO2 SLP248 T00281111
Observed
Mar-24 @ 00:54 UTC
Wind
  • 280° at 6 KTS
Visibility
10 SM
Flight Rules
VFR
Cloud Levels
  • Clear skies
Temperature
C / 37°F
Dewpoint
-11°C / 12°F
Humidity
35%
Altimeter
30.21" Hg
Pressure
1024.8 hPa
Previous

3 hours ago

KFIG 232354Z AUTO 26007KT 10SM CLR 03/M11 A3020 RMK AO2 SLP243 T00331111 10067 20033 52018
Observed
Mar-23 @ 23:54 UTC
Wind
  • 260° at 7 KTS
Visibility
10 SM
Flight Rules
VFR
Cloud Levels
  • Clear skies
Temperature
C / 37°F
Dewpoint
-11°C / 12°F
Humidity
35%
Altimeter
30.2" Hg
Pressure
1024.3 hPa